Weather reports worldwide

Advertisment
Pristina, Kosovo (13481): temperature & dewpoint: 15.07.2018 00:00:00 - 21.07.2018 00:00:00 (CEST)Pristina, Kosovo (13481): wind speed: 15.07.2018 00:00:00 - 21.07.2018 00:00:00 (CEST)Pristina, Kosovo (13481): wind direction: 15.07.2018 00:00:00 - 21.07.2018 00:00:00 (CEST)Pristina, Kosovo (13481): visibility: 15.07.2018 00:00:00 - 21.07.2018 00:00:00 (CEST)
Date & Time tt [°C] td [°C] ff [km/h] ff [kn] dd vv [km]
21.07.2018 00:00:00 16,0 12,0 2 1 - 10
20.07.2018 23:00:00 17,0 11,0 4 2 - 10
20.07.2018 22:00:00 18,0 12,0 5 3 - 10
20.07.2018 21:00:00 20,0 11,0 9 5 WNW 10
20.07.2018 20:00:00 23,0 12,0 11 6 NNW 10
20.07.2018 19:00:00 25,0 12,0 15 8 N 10
20.07.2018 18:00:00 27,0 10,0 11 6 NW 10
20.07.2018 17:00:00 27,0 9,0 8 4 N 10
20.07.2018 16:00:00 26,0 10,0 8 4 WNW 10
20.07.2018 15:00:00 26,0 14,0 5 3 - 10
20.07.2018 14:00:00 24,0 13,0 5 3 - 10
20.07.2018 13:00:00 25,0 11,0 18 10 NNW 10
20.07.2018 12:00:00 24,0 12,0 15 8 WNW 10
20.07.2018 11:00:00 23,0 12,0 16 9 NW 10
20.07.2018 10:00:00 23,0 13,0 15 8 NW 10
20.07.2018 09:00:00 22,0 13,0 11 6 WNW 10
20.07.2018 08:00:00 20,0 14,0 2 1 - 10
20.07.2018 07:00:00 20,0 13,0 4 2 - 10
20.07.2018 06:00:00 19,0 13,0 4 2 - 10
20.07.2018 05:00:00 19,0 14,0 4 2 - 2,0
20.07.2018 04:00:00 18,0 14,0 2 1 - 10
20.07.2018 03:00:00 19,0 13,0 2 1 - 10
20.07.2018 02:00:00 19,0 14,0 0 0 N 10
20.07.2018 01:00:00 19,0 14,0 0 0 N 10
20.07.2018 00:00:00 19,0 13,0 5 3 - 10
19.07.2018 23:00:00 20,0 13,0 0 0 N 10
19.07.2018 22:00:00 20,0 13,0 5 3 - 10
19.07.2018 21:00:00 19,0 13,0 5 3 - 10
19.07.2018 20:00:00 20,0 13,0 4 2 - 10
19.07.2018 19:00:00 20,0 14,0 4 2 - 10
19.07.2018 18:00:00 20,0 13,0 4 2 - 10
19.07.2018 17:00:00 20,0 14,0 2 1 - 10
19.07.2018 16:00:00 20,0 14,0 5 3 - 10
19.07.2018 15:00:00 21,0 13,0 8 4 NW 10
19.07.2018 14:00:00 21,0 13,0 5 3 - 10
19.07.2018 13:00:00 21,0 12,0 13 7 WNW 10
19.07.2018 12:00:00 21,0 12,0 5 3 - 10
19.07.2018 11:00:00 21,0 11,0 9 5 NW 10
19.07.2018 10:00:00 21,0 10,0 18 10 NW 10
19.07.2018 09:00:00 21,0 10,0 22 12 NW 10
19.07.2018 08:00:00 21,0 9,0 15 8 NNW 10
19.07.2018 07:00:00 20,0 10,0 9 5 NW 10
19.07.2018 06:00:00 20,0 11,0 9 5 WNW 10
19.07.2018 05:00:00 19,0 10,0 11 6 W 10
19.07.2018 04:00:00 18,0 13,0 4 2 - 10
19.07.2018 03:00:00 19,0 12,0 4 2 - 10
19.07.2018 02:00:00 19,0 11,0 4 2 - 10
19.07.2018 01:00:00 19,0 11,0 16 9 N 10
19.07.2018 00:00:00 19,0 12,0 4 2 - 10
18.07.2018 23:00:00 18,0 11,0 5 3 - 10
18.07.2018 22:00:00 20,0 10,0 9 5 WNW 10
18.07.2018 21:00:00 21,0 10,0 8 4 WNW 10
18.07.2018 20:00:00 23,0 8,0 18 10 NW 10
18.07.2018 19:00:00 24,0 11,0 13 7 NW 10
18.07.2018 18:00:00 24,0 11,0 11 6 NW 10
18.07.2018 17:00:00 24,0 11,0 16 9 NNW 10
18.07.2018 16:00:00 26,0 11,0 15 8 WNW 10
18.07.2018 15:00:00 26,0 11,0 16 9 NW 10
18.07.2018 14:00:00 26,0 8,0 16 9 NW 10
18.07.2018 13:00:00 25,0 12,0 5 3 - 10
18.07.2018 12:00:00 25,0 11,0 13 7 WNW 10
18.07.2018 11:00:00 23,0 12,0 13 7 W 10
18.07.2018 10:00:00 23,0 12,0 9 5 WNW 10
18.07.2018 09:00:00 21,0 12,0 15 8 N 10
18.07.2018 08:00:00 20,0 13,0 2 1 - 8
18.07.2018 07:00:00 17,0 14,0 8 4 NE 6
18.07.2018 06:00:00 15,0 13,0 4 2 - 5
18.07.2018 05:00:00 15,0 13,0 5 3 - 10
18.07.2018 04:00:00 17,0 12,0 9 5 NW 10
18.07.2018 03:00:00 17,0 13,0 8 4 NW 10
18.07.2018 02:00:00 17,0 13,0 8 4 WNW 10
18.07.2018 01:00:00 17,0 13,0 5 3 - 10
18.07.2018 00:00:00 18,0 15,0 8 4 NNW 10
17.07.2018 23:00:00 18,0 14,0 5 3 - 10
17.07.2018 22:00:00 19,0 15,0 8 4 NW 10
17.07.2018 21:00:00 20,0 15,0 9 5 NW 10
17.07.2018 20:00:00 20,0 15,0 11 6 N 10
17.07.2018 19:00:00 22,0 13,0 13 7 NNW 10
17.07.2018 18:00:00 22,0 14,0 11 6 N 10
17.07.2018 17:00:00 23,0 14,0 15 8 N 10
17.07.2018 16:00:00 23,0 14,0 18 10 N 10
17.07.2018 15:00:00 24,0 14,0 13 7 N 10
17.07.2018 14:00:00 22,0 16,0 8 4 NNE 10
17.07.2018 13:00:00 21,0 15,0 2 1 - 10
17.07.2018 12:00:00 19,0 15,0 5 3 - 10
17.07.2018 11:00:00 19,0 15,0 8 4 N 10
17.07.2018 10:00:00 19,0 15,0 5 3 - 10
17.07.2018 09:00:00 18,0 15,0 8 4 ESE 10
17.07.2018 08:00:00 17,0 15,0 5 3 - 10
17.07.2018 07:00:00 18,0 15,0 8 4 NW 5
17.07.2018 06:00:00 17,0 15,0 5 3 - 10
17.07.2018 05:00:00 17,0 15,0 0 0 N 3,0
17.07.2018 04:00:00 17,0 15,0 0 0 N 10
17.07.2018 03:00:00 18,0 16,0 0 0 N 10
17.07.2018 02:00:00 19,0 16,0 4 2 - 10
17.07.2018 01:00:00 18,0 16,0 4 2 - 10
17.07.2018 00:00:00 18,0 16,0 0 0 N 10
16.07.2018 23:00:00 19,0 15,0 4 2 - 10
16.07.2018 22:00:00 20,0 16,0 8 4 S 10
16.07.2018 21:00:00 21,0 16,0 2 1 - 10
16.07.2018 20:00:00 23,0 16,0 9 5 NE 10
16.07.2018 19:00:00 23,0 16,0 8 4 NW 10
16.07.2018 18:00:00 26,0 16,0 11 6 NW 10
16.07.2018 17:00:00 27,0 15,0 15 8 W 10
16.07.2018 16:00:00 27,0 15,0 13 7 W 10
16.07.2018 15:00:00 28,0 15,0 9 5 W 10
16.07.2018 14:00:00 27,0 15,0 5 3 - 10
16.07.2018 13:00:00 25,0 14,0 5 3 - 10
16.07.2018 12:00:00 24,0 13,0 5 3 - 10
16.07.2018 11:00:00 23,0 13,0 4 2 - 10
16.07.2018 10:00:00 20,0 16,0 4 2 - 7
16.07.2018 09:00:00 18,0 15,0 4 2 - 4,0
16.07.2018 08:00:00 16,0 15,0 5 3 - 2,0
16.07.2018 07:00:00 16,0 15,0 4 2 - 0,5
16.07.2018 06:00:00 16,0 15,0 0 0 N 0,7
16.07.2018 05:00:00 16,0 14,0 0 0 N 0,6
16.07.2018 04:00:00 15,0 14,0 4 2 - 4,0
16.07.2018 03:00:00 16,0 14,0 5 3 - 4,0
16.07.2018 02:00:00 17,0 14,0 9 5 NW 7
16.07.2018 01:00:00 17,0 15,0 5 3 - 7
16.07.2018 00:00:00 17,0 14,0 2 1 - 8
15.07.2018 23:00:00 17,0 14,0 8 4 N 8
15.07.2018 22:00:00 18,0 15,0 4 2 - 10
15.07.2018 21:00:00 19,0 15,0 13 7 S 10
15.07.2018 20:00:00 18,0 16,0 4 2 - 7
15.07.2018 19:00:00 22,0 16,0 21 11 NNW 3,0
15.07.2018 18:00:00 25,0 14,0 26 14 N 10
15.07.2018 17:00:00 28,0 10,0 8 4 NW 10
15.07.2018 16:00:00 28,0 9,0 9 5 W 10
15.07.2018 15:00:00 28,0 11,0 5 3 - 10
15.07.2018 14:00:00 27,0 12,0 8 4 WSW 10
15.07.2018 13:00:00 26,0 11,0 8 4 WSW 10
15.07.2018 12:00:00 26,0 13,0 4 2 - 10
15.07.2018 11:00:00 25,0 12,0 2 1 - 10
15.07.2018 10:00:00 23,0 12,0 2 1 - 10
15.07.2018 09:00:00 21,0 14,0 2 1 - 10
15.07.2018 08:00:00 18,0 13,0 5 3 - 7
15.07.2018 07:00:00 16,0 13,0 0 0 N 3,0
15.07.2018 06:00:00 14,0 12,0 0 0 N 3,0
15.07.2018 05:00:00 14,0 12,0 0 0 N 6
15.07.2018 04:00:00 15,0 12,0 0 0 N 7
15.07.2018 03:00:00 16,0 12,0 2 1 - 10
15.07.2018 02:00:00 16,0 13,0 2 1 - 10
15.07.2018 01:00:00 16,0 12,0 4 2 - 10
15.07.2018 00:00:00 17,0 13,0 2 1 - 10

tt = temperature
td = dewpoint
ff = wind speed
dd = wind direction
vv = visibility

Next stations